Terminal Aerodrome Forecast
Issued by NWS

Home | Current Version | Previous Version | Graphics & Text | Print | Product List | Glossary On
Versions: 1 2 3 4 5 6 7 8 9 10 11 12 13 14 15 16 17 18 19 20
000
FTUS42 KMHX 182300
TAFPGV
TAF
KPGV 182320Z 1900/1924 10008KT 2SM TSRA BKN020CB
     FM190100 21006KT P6SM VCTS BKN040CB
     FM190400 21004KT P6SM BKN030
     FM190800 24003KT 4SM BR SCT040
     FM191300 26008KT P6SM SCT040
     FM191900 25009KT P6SM BKN040
      AMD LTD TO CLD VIS AND WIND=

USA.gov is the U.S. government's official web portal to all federal, state and local government web resources and services.